sensor_id;sensor_type;location;lat;lon;timestamp;pressure;altitude;pressure_sealevel;temperature;humidity
72086;BME280;64750;52.134;5.424;2023-03-03T00:00:43;102757.84;;;3.57;76.92
72086;BME280;64750;52.134;5.424;2023-03-03T00:03:13;102753.53;;;3.50;76.56
72086;BME280;64750;52.134;5.424;2023-03-03T00:05:40;102757.88;;;3.45;77.03
72086;BME280;64750;52.134;5.424;2023-03-03T00:08:08;102758.72;;;3.44;76.83
72086;BME280;64750;52.134;5.424;2023-03-03T00:10:36;102753.53;;;3.38;76.79
72086;BME280;64750;52.134;5.424;2023-03-03T00:13:02;102755.25;;;3.42;77.09
72086;BME280;64750;52.134;5.424;2023-03-03T00:15:30;102751.78;;;3.41;76.56
72086;BME280;64750;52.134;5.424;2023-03-03T00:17:57;102752.66;;;3.47;77.28
72086;BME280;64750;52.134;5.424;2023-03-03T00:20:26;102753.50;;;3.39;76.57
72086;BME280;64750;52.134;5.424;2023-03-03T00:22:59;102753.53;;;3.36;76.84
72086;BME280;64750;52.134;5.424;2023-03-03T00:25:33;102754.38;;;3.37;77.28
72086;BME280;64750;52.134;5.424;2023-03-03T00:28:05;102758.69;;;3.25;77.33
72086;BME280;64750;52.134;5.424;2023-03-03T00:30:32;102767.38;;;3.24;77.65
72086;BME280;64750;52.134;5.424;2023-03-03T00:32:59;102770.84;;;3.23;77.73
72086;BME280;64750;52.134;5.424;2023-03-03T00:35:32;102765.63;;;3.25;77.92
72086;BME280;64750;52.134;5.424;2023-03-03T00:38:10;102775.13;;;3.15;78.68
72086;BME280;64750;52.134;5.424;2023-03-03T00:40:39;102776.03;;;3.14;78.52
72086;BME280;64750;52.134;5.424;2023-03-03T00:43:21;102780.31;;;3.03;78.62
72086;BME280;64750;52.134;5.424;2023-03-03T00:45:54;102777.72;;;3.03;78.28
72086;BME280;64750;52.134;5.424;2023-03-03T00:48:41;102769.03;;;2.96;78.53
72086;BME280;64750;52.134;5.424;2023-03-03T00:51:28;102771.63;;;2.93;78.83
72086;BME280;64750;52.134;5.424;2023-03-03T00:53:56;102776.81;;;2.96;78.53
72086;BME280;64750;52.134;5.424;2023-03-03T00:56:23;102774.19;;;2.88;78.98
72086;BME280;64750;52.134;5.424;2023-03-03T00:58:50;102782.00;;;2.85;79.35
72086;BME280;64750;52.134;5.424;2023-03-03T01:01:17;102782.88;;;2.93;79.36
72086;BME280;64750;52.134;5.424;2023-03-03T01:03:44;102784.59;;;2.96;79.32
72086;BME280;64750;52.134;5.424;2023-03-03T01:06:11;102783.78;;;3.02;79.11
72086;BME280;64750;52.134;5.424;2023-03-03T01:08:38;102792.44;;;2.98;79.21
72086;BME280;64750;52.134;5.424;2023-03-03T01:11:11;102788.94;;;2.97;78.97
72086;BME280;64750;52.134;5.424;2023-03-03T01:13:40;102787.22;;;2.99;79.29
72086;BME280;64750;52.134;5.424;2023-03-03T01:16:08;102784.63;;;3.01;79.20
72086;BME280;64750;52.134;5.424;2023-03-03T01:18:35;102791.53;;;2.95;78.64
72086;BME280;64750;52.134;5.424;2023-03-03T01:21:02;102785.47;;;2.90;79.16
72086;BME280;64750;52.134;5.424;2023-03-03T01:23:28;102794.16;;;2.95;79.20
72086;BME280;64750;52.134;5.424;2023-03-03T01:25:55;102776.81;;;2.91;79.55
72086;BME280;64750;52.134;5.424;2023-03-03T01:28:21;102784.59;;;2.84;79.55
72086;BME280;64750;52.134;5.424;2023-03-03T01:30:48;102779.38;;;2.87;79.76
72086;BME280;64750;52.134;5.424;2023-03-03T01:33:14;102784.63;;;2.91;79.54
72086;BME280;64750;52.134;5.424;2023-03-03T01:35:44;102781.16;;;2.95;79.73
72086;BME280;64750;52.134;5.424;2023-03-03T01:38:12;102789.78;;;2.87;79.89
72086;BME280;64750;52.134;5.424;2023-03-03T01:40:39;102786.31;;;2.89;79.78
72086;BME280;64750;52.134;5.424;2023-03-03T01:43:06;102785.47;;;2.92;79.75
72086;BME280;64750;52.134;5.424;2023-03-03T01:48:21;102787.19;;;2.82;79.64
72086;BME280;64750;52.134;5.424;2023-03-03T01:50:52;102781.97;;;2.79;79.63
72086;BME280;64750;52.134;5.424;2023-03-03T01:55:54;102789.75;;;2.76;80.35
72086;BME280;64750;52.134;5.424;2023-03-03T01:58:25;102788.91;;;2.82;79.54
72086;BME280;64750;52.134;5.424;2023-03-03T02:00:56;102787.13;;;2.68;79.91
72086;BME280;64750;52.134;5.424;2023-03-03T02:03:25;102791.47;;;2.74;80.26
72086;BME280;64750;52.134;5.424;2023-03-03T02:05:54;102791.50;;;2.80;80.14
72086;BME280;64750;52.134;5.424;2023-03-03T02:08:27;102791.50;;;2.80;79.79
72086;BME280;64750;52.134;5.424;2023-03-03T02:10:56;102788.88;;;2.74;79.80
72086;BME280;64750;52.134;5.424;2023-03-03T02:13:23;102790.59;;;2.75;79.99
72086;BME280;64750;52.134;5.424;2023-03-03T02:15:50;102785.41;;;2.73;79.58
72086;BME280;64750;52.134;5.424;2023-03-03T02:18:18;102787.13;;;2.71;80.36
72086;BME280;64750;52.134;5.424;2023-03-03T02:20:53;102781.06;;;2.74;79.98
72086;BME280;64750;52.134;5.424;2023-03-03T02:23:29;102786.31;;;2.77;80.21
72086;BME280;64750;52.134;5.424;2023-03-03T02:26:17;102787.13;;;2.70;79.84
72086;BME280;64750;52.134;5.424;2023-03-03T02:28:45;102789.75;;;2.76;80.04
72086;BME280;64750;52.134;5.424;2023-03-03T02:31:14;102786.31;;;2.77;79.83
72086;BME280;64750;52.134;5.424;2023-03-03T02:33:46;102780.19;;;2.69;79.53
72086;BME280;64750;52.134;5.424;2023-03-03T02:36:18;102789.72;;;2.67;79.75
72086;BME280;64750;52.134;5.424;2023-03-03T02:39:02;102794.00;;;2.61;80.11
72086;BME280;64750;52.134;5.424;2023-03-03T02:41:35;102785.31;;;2.56;79.79
72086;BME280;64750;52.134;5.424;2023-03-03T02:44:12;102788.81;;;2.55;80.25
72086;BME280;64750;52.134;5.424;2023-03-03T02:46:41;102790.53;;;2.61;80.50
72086;BME280;64750;52.134;5.424;2023-03-03T02:49:10;102780.94;;;2.46;80.03
72086;BME280;64750;52.134;5.424;2023-03-03T02:51:37;102789.59;;;2.40;80.50
72086;BME280;64750;52.134;5.424;2023-03-03T02:54:04;102785.28;;;2.47;80.96
72086;BME280;64750;52.134;5.424;2023-03-03T02:56:31;102786.22;;;2.55;80.76
72086;BME280;64750;52.134;5.424;2023-03-03T02:58:58;102788.84;;;2.65;80.31
72086;BME280;64750;52.134;5.424;2023-03-03T03:01:24;102790.53;;;2.62;80.38
72086;BME280;64750;52.134;5.424;2023-03-03T03:03:51;102791.41;;;2.61;80.29
72086;BME280;64750;52.134;5.424;2023-03-03T03:06:18;102796.59;;;2.55;80.49
72086;BME280;64750;52.134;5.424;2023-03-03T03:08:44;102801.78;;;2.55;80.89
72086;BME280;64750;52.134;5.424;2023-03-03T03:11:11;102794.88;;;2.60;80.22
72086;BME280;64750;52.134;5.424;2023-03-03T03:13:37;102792.22;;;2.51;80.24
72086;BME280;64750;52.134;5.424;2023-03-03T03:16:04;102795.75;;;2.58;80.46
72086;BME280;64750;52.134;5.424;2023-03-03T03:18:30;102792.28;;;2.60;80.24
72086;BME280;64750;52.134;5.424;2023-03-03T03:21:04;102789.69;;;2.63;79.83
72086;BME280;64750;52.134;5.424;2023-03-03T03:23:31;102789.66;;;2.59;80.13
72086;BME280;64750;52.134;5.424;2023-03-03T03:25:59;102787.88;;;2.47;80.65
72086;BME280;64750;52.134;5.424;2023-03-03T03:28:25;102786.16;;;2.49;80.79
72086;BME280;64750;52.134;5.424;2023-03-03T03:30:52;102787.03;;;2.51;81.21
72086;BME280;64750;52.134;5.424;2023-03-03T03:33:18;102791.38;;;2.52;80.97
72086;BME280;64750;52.134;5.424;2023-03-03T03:35:44;102786.97;;;2.39;81.09
72086;BME280;64750;52.134;5.424;2023-03-03T03:38:13;102786.97;;;2.42;80.65
72086;BME280;64750;52.134;5.424;2023-03-03T03:40:40;102799.97;;;2.39;80.92
72086;BME280;64750;52.134;5.424;2023-03-03T03:43:06;102793.91;;;2.41;80.73
72086;BME280;64750;52.134;5.424;2023-03-03T03:45:33;102794.78;;;2.40;81.35
72086;BME280;64750;52.134;5.424;2023-03-03T03:47:59;102801.75;;;2.49;80.88
72086;BME280;64750;52.134;5.424;2023-03-03T03:50:26;102801.75;;;2.49;80.53
72086;BME280;64750;52.134;5.424;2023-03-03T03:52:52;102798.28;;;2.50;80.81
72086;BME280;64750;52.134;5.424;2023-03-03T03:55:19;102800.03;;;2.54;81.49
72086;BME280;64750;52.134;5.424;2023-03-03T03:57:45;102805.22;;;2.56;80.83
72086;BME280;64750;52.134;5.424;2023-03-03T04:00:12;102812.13;;;2.52;81.50
72086;BME280;64750;52.134;5.424;2023-03-03T04:02:39;102810.38;;;2.51;81.11
72086;BME280;64750;52.134;5.424;2023-03-03T04:05:06;102814.72;;;2.51;81.20
72086;BME280;64750;52.134;5.424;2023-03-03T04:07:32;102816.47;;;2.53;81.30
72086;BME280;64750;52.134;5.424;2023-03-03T04:09:59;102821.63;;;2.44;81.28
72086;BME280;64750;52.134;5.424;2023-03-03T04:12:25;102811.19;;;2.35;81.63
72086;BME280;64750;52.134;5.424;2023-03-03T04:14:52;102808.59;;;2.35;81.75
72086;BME280;64750;52.134;5.424;2023-03-03T04:17:20;102806.00;;;2.36;81.70
72086;BME280;64750;52.134;5.424;2023-03-03T04:19:47;102808.59;;;2.38;81.67
72086;BME280;64750;52.134;5.424;2023-03-03T04:22:13;102807.69;;;2.29;82.05
72086;BME280;64750;52.134;5.424;2023-03-03T04:24:40;102804.25;;;2.35;82.45
72086;BME280;64750;52.134;5.424;2023-03-03T04:27:06;102806.00;;;2.41;82.14
72086;BME280;64750;52.134;5.424;2023-03-03T04:29:34;102809.50;;;2.41;81.53
72086;BME280;64750;52.134;5.424;2023-03-03T04:32:01;102807.75;;;2.42;82.00
72086;BME280;64750;52.134;5.424;2023-03-03T04:34:27;102805.16;;;2.42;81.59
72086;BME280;64750;52.134;5.424;2023-03-03T04:36:54;102809.50;;;2.41;81.11
72086;BME280;64750;52.134;5.424;2023-03-03T04:39:20;102809.50;;;2.40;82.17
72086;BME280;64750;52.134;5.424;2023-03-03T04:41:47;102810.34;;;2.40;81.41
72086;BME280;64750;52.134;5.424;2023-03-03T04:44:13;102809.44;;;2.38;81.79
72086;BME280;64750;52.134;5.424;2023-03-03T04:46:39;102813.78;;;2.38;82.08
72086;BME280;64750;52.134;5.424;2023-03-03T04:49:06;102812.09;;;2.43;82.36
72086;BME280;64750;52.134;5.424;2023-03-03T04:51:36;102823.31;;;2.40;82.63
72086;BME280;64750;52.134;5.424;2023-03-03T04:54:03;102815.53;;;2.39;82.55
72086;BME280;64750;52.134;5.424;2023-03-03T04:56:30;102823.31;;;2.40;82.61
72086;BME280;64750;52.134;5.424;2023-03-03T04:58:57;102826.78;;;2.41;82.67
72086;BME280;64750;52.134;5.424;2023-03-03T05:01:23;102818.13;;;2.40;82.89
72086;BME280;64750;52.134;5.424;2023-03-03T05:03:49;102820.72;;;2.37;83.41
72086;BME280;64750;52.134;5.424;2023-03-03T05:06:16;102816.34;;;2.32;82.63
72086;BME280;64750;52.134;5.424;2023-03-03T05:08:44;102812.91;;;2.36;83.43
72086;BME280;64750;52.134;5.424;2023-03-03T05:11:11;102808.56;;;2.32;83.23
72086;BME280;64750;52.134;5.424;2023-03-03T05:13:37;102813.78;;;2.38;83.60
72086;BME280;64750;52.134;5.424;2023-03-03T05:16:04;102806.03;;;2.42;82.81
72086;BME280;64750;52.134;5.424;2023-03-03T05:18:31;102812.09;;;2.43;83.58
72086;BME280;64750;52.134;5.424;2023-03-03T05:20:57;102811.19;;;2.41;83.03
72086;BME280;64750;52.134;5.424;2023-03-03T05:23:24;102812.09;;;2.40;83.90
72086;BME280;64750;52.134;5.424;2023-03-03T05:25:50;102809.50;;;2.40;83.54
72086;BME280;64750;52.134;5.424;2023-03-03T05:28:17;102812.97;;;2.45;84.17
72086;BME280;64750;52.134;5.424;2023-03-03T05:30:44;102812.13;;;2.49;83.99
72086;BME280;64750;52.134;5.424;2023-03-03T05:33:13;102812.97;;;2.51;83.56
72086;BME280;64750;52.134;5.424;2023-03-03T05:35:40;102813.88;;;2.53;83.62
72086;BME280;64750;52.134;5.424;2023-03-03T05:38:07;102812.13;;;2.52;83.78
72086;BME280;64750;52.134;5.424;2023-03-03T05:40:33;102810.38;;;2.51;83.60
72086;BME280;64750;52.134;5.424;2023-03-03T05:43:00;102814.69;;;2.46;84.24
72086;BME280;64750;52.134;5.424;2023-03-03T05:45:26;102818.16;;;2.46;84.36
72086;BME280;64750;52.134;5.424;2023-03-03T05:47:53;102812.13;;;2.51;83.65
72086;BME280;64750;52.134;5.424;2023-03-03T05:50:23;102819.91;;;2.54;83.92
72086;BME280;64750;52.134;5.424;2023-03-03T05:52:50;102814.75;;;2.57;83.75
72086;BME280;64750;52.134;5.424;2023-03-03T05:55:17;102813.03;;;2.54;84.39
72086;BME280;64750;52.134;5.424;2023-03-03T05:57:44;102813.03;;;2.54;84.29
72086;BME280;64750;52.134;5.424;2023-03-03T06:00:12;102821.69;;;2.58;84.50
72086;BME280;64750;52.134;5.424;2023-03-03T06:02:39;102821.69;;;2.59;83.98
72086;BME280;64750;52.134;5.424;2023-03-03T06:05:07;102820.81;;;2.57;84.39
72086;BME280;64750;52.134;5.424;2023-03-03T06:07:34;102832.91;;;2.52;84.32
72086;BME280;64750;52.134;5.424;2023-03-03T06:10:01;102821.66;;;2.55;84.59
72086;BME280;64750;52.134;5.424;2023-03-03T06:12:27;102829.44;;;2.56;85.07
72086;BME280;64750;52.134;5.424;2023-03-03T06:14:54;102826.00;;;2.56;84.98
72086;BME280;64750;52.134;5.424;2023-03-03T06:17:20;102829.44;;;2.56;84.77
72086;BME280;64750;52.134;5.424;2023-03-03T06:19:47;102839.00;;;2.60;84.39
72086;BME280;64750;52.134;5.424;2023-03-03T06:22:13;102832.94;;;2.58;84.63
72086;BME280;64750;52.134;5.424;2023-03-03T06:24:40;102839.88;;;2.59;84.75
72086;BME280;64750;52.134;5.424;2023-03-03T06:27:06;102838.97;;;2.59;84.94
72086;BME280;64750;52.134;5.424;2023-03-03T06:29:32;102832.94;;;2.58;85.27
72086;BME280;64750;52.134;5.424;2023-03-03T06:31:59;102843.31;;;2.57;85.43
72086;BME280;64750;52.134;5.424;2023-03-03T06:34:26;102843.31;;;2.60;85.42
72086;BME280;64750;52.134;5.424;2023-03-03T06:36:52;102835.53;;;2.61;85.37
72086;BME280;64750;52.134;5.424;2023-03-03T06:39:19;102846.78;;;2.56;85.41
72086;BME280;64750;52.134;5.424;2023-03-03T06:41:45;102843.31;;;2.55;85.89
72086;BME280;64750;52.134;5.424;2023-03-03T06:44:11;102848.47;;;2.52;85.86
72086;BME280;64750;52.134;5.424;2023-03-03T06:46:38;102853.66;;;2.48;85.98
72086;BME280;64750;52.134;5.424;2023-03-03T06:49:04;102851.91;;;2.46;86.25
72086;BME280;64750;52.134;5.424;2023-03-03T06:51:36;102862.28;;;2.45;86.61
72086;BME280;64750;52.134;5.424;2023-03-03T06:54:13;102856.22;;;2.44;86.67
72086;BME280;64750;52.134;5.424;2023-03-03T06:56:41;102857.94;;;2.42;86.65
72086;BME280;64750;52.134;5.424;2023-03-03T06:59:16;102866.63;;;2.52;86.91
72086;BME280;64750;52.134;5.424;2023-03-03T07:01:44;102862.34;;;2.57;86.00
72086;BME280;64750;52.134;5.424;2023-03-03T07:06:45;102869.28;;;2.58;86.76
72086;BME280;64750;52.134;5.424;2023-03-03T07:09:21;102871.03;;;2.58;86.41
72086;BME280;64750;52.134;5.424;2023-03-03T07:11:56;102878.81;;;2.59;86.52
72086;BME280;64750;52.134;5.424;2023-03-03T07:14:27;102886.56;;;2.52;86.67
72086;BME280;64750;52.134;5.424;2023-03-03T07:16:59;102884.84;;;2.55;86.89
72086;BME280;64750;52.134;5.424;2023-03-03T07:19:32;102894.34;;;2.53;87.41
72086;BME280;64750;52.134;5.424;2023-03-03T07:24:40;102891.75;;;2.56;87.37
72086;BME280;64750;52.134;5.424;2023-03-03T07:27:12;102894.38;;;2.59;86.79
72086;BME280;64750;52.134;5.424;2023-03-03T07:29:41;102890.97;;;2.67;87.08
72086;BME280;64750;52.134;5.424;2023-03-03T07:34:54;102899.63;;;2.69;87.12
72086;BME280;64750;52.134;5.424;2023-03-03T07:37:38;102889.25;;;2.69;86.74
72086;BME280;64750;52.134;5.424;2023-03-03T07:40:30;102896.16;;;2.67;87.21
72086;BME280;64750;52.134;5.424;2023-03-03T07:43:12;102897.03;;;2.69;86.67
72086;BME280;64750;52.134;5.424;2023-03-03T07:45:42;102910.06;;;2.72;86.57
72086;BME280;64750;52.134;5.424;2023-03-03T07:50:39;102919.53;;;2.67;86.64
72086;BME280;64750;52.134;5.424;2023-03-03T07:53:35;102913.50;;;2.72;87.23
72086;BME280;64750;52.134;5.424;2023-03-03T07:56:43;102916.09;;;2.74;87.31
72086;BME280;64750;52.134;5.424;2023-03-03T07:59:22;102917.84;;;2.78;86.59
72086;BME280;64750;52.134;5.424;2023-03-03T08:01:52;102920.44;;;2.75;86.58
72086;BME280;64750;52.134;5.424;2023-03-03T08:04:40;102925.63;;;2.75;87.17
72086;BME280;64750;52.134;5.424;2023-03-03T08:07:15;102928.25;;;2.78;87.74
72086;BME280;64750;52.134;5.424;2023-03-03T08:09:50;102930.88;;;2.79;87.27
72086;BME280;64750;52.134;5.424;2023-03-03T08:12:32;102935.22;;;2.88;87.17
72086;BME280;64750;52.134;5.424;2023-03-03T08:15:22;102939.56;;;2.89;87.47
72086;BME280;64750;52.134;5.424;2023-03-03T08:17:51;102947.34;;;2.89;86.70
72086;BME280;64750;52.134;5.424;2023-03-03T08:23:00;102948.25;;;2.91;87.58
72086;BME280;64750;52.134;5.424;2023-03-03T08:25:26;102951.75;;;2.95;87.59
72086;BME280;64750;52.134;5.424;2023-03-03T08:27:53;102949.16;;;2.97;87.11
72086;BME280;64750;52.134;5.424;2023-03-03T08:30:19;102946.56;;;3.00;87.04
72086;BME280;64750;52.134;5.424;2023-03-03T08:32:45;102946.56;;;3.01;87.52
72086;BME280;64750;52.134;5.424;2023-03-03T08:35:12;102955.22;;;3.03;86.92
72086;BME280;64750;52.134;5.424;2023-03-03T08:37:38;102956.97;;;3.07;87.87
72086;BME280;64750;52.134;5.424;2023-03-03T08:40:05;102953.53;;;3.08;87.69
72086;BME280;64750;52.134;5.424;2023-03-03T08:42:32;102955.28;;;3.12;86.65
72086;BME280;64750;52.134;5.424;2023-03-03T08:44:58;102956.97;;;3.06;87.02
72086;BME280;64750;52.134;5.424;2023-03-03T08:47:24;102961.28;;;3.04;86.64
72086;BME280;64750;52.134;5.424;2023-03-03T08:49:51;102944.88;;;3.08;87.40
72086;BME280;64750;52.134;5.424;2023-03-03T08:52:19;102947.47;;;3.12;87.28
72086;BME280;64750;52.134;5.424;2023-03-03T08:54:46;102952.72;;;3.14;87.23
72086;BME280;64750;52.134;5.424;2023-03-03T08:57:12;102948.38;;;3.18;87.65
72086;BME280;64750;52.134;5.424;2023-03-03T08:59:38;102943.22;;;3.21;87.71
72086;BME280;64750;52.134;5.424;2023-03-03T09:02:05;102948.41;;;3.25;87.81
72086;BME280;64750;52.134;5.424;2023-03-03T09:04:32;102952.78;;;3.30;87.26
72086;BME280;64750;52.134;5.424;2023-03-03T09:06:59;102951.94;;;3.34;87.64
72086;BME280;64750;52.134;5.424;2023-03-03T09:09:25;102955.38;;;3.33;87.53
72086;BME280;64750;52.134;5.424;2023-03-03T09:11:57;102946.72;;;3.35;87.25
72086;BME280;64750;52.134;5.424;2023-03-03T09:14:27;102952.78;;;3.31;87.30
72086;BME280;64750;52.134;5.424;2023-03-03T09:16:55;102954.53;;;3.37;87.57
72086;BME280;64750;52.134;5.424;2023-03-03T09:19:30;102947.59;;;3.42;87.71
72086;BME280;64750;52.134;5.424;2023-03-03T09:22:18;102953.69;;;3.47;87.30
72086;BME280;64750;52.134;5.424;2023-03-03T09:24:46;102944.19;;;3.48;87.46
72086;BME280;64750;52.134;5.424;2023-03-03T09:27:34;102954.59;;;3.49;87.17
72086;BME280;64750;52.134;5.424;2023-03-03T09:32:47;102949.41;;;3.54;87.12
72086;BME280;64750;52.134;5.424;2023-03-03T09:35:34;102948.56;;;3.56;86.54
72086;BME280;64750;52.134;5.424;2023-03-03T09:41:00;102951.16;;;3.61;87.11
72086;BME280;64750;52.134;5.424;2023-03-03T09:43:51;102954.63;;;3.65;86.74
72086;BME280;64750;52.134;5.424;2023-03-03T09:46:44;102963.28;;;3.64;86.32
72086;BME280;64750;52.134;5.424;2023-03-03T09:49:34;102960.69;;;3.65;86.30
72086;BME280;64750;52.134;5.424;2023-03-03T09:57:29;102954.66;;;3.71;86.49
72086;BME280;64750;52.134;5.424;2023-03-03T10:02:51;102959.88;;;3.80;86.00
72086;BME280;64750;52.134;5.424;2023-03-03T10:05:52;102962.50;;;3.86;85.84
72086;BME280;64750;52.134;5.424;2023-03-03T10:08:36;102961.63;;;3.90;85.83
72086;BME280;64750;52.134;5.424;2023-03-03T10:17:01;102953.84;;;4.04;85.83
72086;BME280;64750;52.134;5.424;2023-03-03T10:22:34;102961.66;;;4.15;84.88
72086;BME280;64750;52.134;5.424;2023-03-03T10:30:46;102950.38;;;4.32;84.00
72086;BME280;64750;52.134;5.424;2023-03-03T10:33:53;102954.72;;;4.33;83.94
72086;BME280;64750;52.134;5.424;2023-03-03T10:36:26;102953.00;;;4.35;84.12
72086;BME280;64750;52.134;5.424;2023-03-03T10:55:17;102954.66;;;4.91;82.79
72086;BME280;64750;52.134;5.424;2023-03-03T11:03:34;102958.16;;;4.87;81.52
72086;BME280;64750;52.134;5.424;2023-03-03T11:06:05;102946.88;;;4.90;81.79
72086;BME280;64750;52.134;5.424;2023-03-03T11:09:02;102948.59;;;4.94;81.17
72086;BME280;64750;52.134;5.424;2023-03-03T11:14:23;102944.22;;;5.04;81.14
72086;BME280;64750;52.134;5.424;2023-03-03T11:20:26;102947.69;;;5.00;79.95
72086;BME280;64750;52.134;5.424;2023-03-03T11:25:54;102933.81;;;5.04;80.26
72086;BME280;64750;52.134;5.424;2023-03-03T11:36:55;102918.78;;;5.55;79.08
72086;BME280;64750;52.134;5.424;2023-03-03T11:39:24;102919.63;;;5.61;78.85
72086;BME280;64750;52.134;5.424;2023-03-03T11:45:10;102921.25;;;5.80;76.86
72086;BME280;64750;52.134;5.424;2023-03-03T11:47:50;102923.03;;;5.72;76.19
72086;BME280;64750;52.134;5.424;2023-03-03T11:50:51;102923.03;;;5.69;75.65
72086;BME280;64750;52.134;5.424;2023-03-03T11:53:39;102919.59;;;5.67;75.51
72086;BME280;64750;52.134;5.424;2023-03-03T11:56:20;102909.13;;;5.70;75.70
72086;BME280;64750;52.134;5.424;2023-03-03T12:01:39;102906.34;;;5.96;74.42
72086;BME280;64750;52.134;5.424;2023-03-03T12:04:18;102915.94;;;5.93;72.36
72086;BME280;64750;52.134;5.424;2023-03-03T12:10:05;102901.19;;;5.88;73.68
72086;BME280;64750;52.134;5.424;2023-03-03T12:15:17;102895.06;;;5.99;73.58
72086;BME280;64750;52.134;5.424;2023-03-03T12:20:55;102894.03;;;6.17;73.45
72086;BME280;64750;52.134;5.424;2023-03-03T12:23:57;102891.34;;;6.26;72.91
72086;BME280;64750;52.134;5.424;2023-03-03T12:29:16;102881.63;;;6.40;71.04
72086;BME280;64750;52.134;5.424;2023-03-03T12:32:04;102887.69;;;6.44;71.75
72086;BME280;64750;52.134;5.424;2023-03-03T12:34:50;102882.41;;;6.47;71.49
72086;BME280;64750;52.134;5.424;2023-03-03T12:37:37;102884.19;;;6.47;70.64
72086;BME280;64750;52.134;5.424;2023-03-03T12:40:16;102884.22;;;6.42;70.25
72086;BME280;64750;52.134;5.424;2023-03-03T12:43:15;102884.25;;;6.39;69.67
72086;BME280;64750;52.134;5.424;2023-03-03T12:45:50;102880.72;;;6.43;69.83
72086;BME280;64750;52.134;5.424;2023-03-03T12:54:09;102862.22;;;6.65;69.71
72086;BME280;64750;52.134;5.424;2023-03-03T12:56:44;102863.09;;;6.65;70.03
72086;BME280;64750;52.134;5.424;2023-03-03T12:59:20;102859.66;;;6.62;69.80
72086;BME280;64750;52.134;5.424;2023-03-03T13:05:20;102868.47;;;6.48;70.86
72086;BME280;64750;52.134;5.424;2023-03-03T13:07:54;102865.91;;;6.47;70.66
72086;BME280;64750;52.134;5.424;2023-03-03T13:10:31;102871.13;;;6.47;71.50
72086;BME280;64750;52.134;5.424;2023-03-03T13:13:08;102866.78;;;6.44;70.61
72086;BME280;64750;52.134;5.424;2023-03-03T13:16:19;102867.66;;;6.43;71.19
72086;BME280;64750;52.134;5.424;2023-03-03T13:18:58;102868.56;;;6.44;70.48
72086;BME280;64750;52.134;5.424;2023-03-03T13:21:34;102865.06;;;6.43;70.72
72086;BME280;64750;52.134;5.424;2023-03-03T13:26:36;102870.25;;;6.45;70.13
72086;BME280;64750;52.134;5.424;2023-03-03T13:29:18;102860.66;;;6.47;70.50
72086;BME280;64750;52.134;5.424;2023-03-03T13:31:54;102859.78;;;6.48;69.92
72086;BME280;64750;52.134;5.424;2023-03-03T13:34:34;102862.44;;;6.46;69.91
72086;BME280;64750;52.134;5.424;2023-03-03T13:37:35;102868.47;;;6.48;69.80
72086;BME280;64750;52.134;5.424;2023-03-03T13:40:18;102862.50;;;6.40;69.15
72086;BME280;64750;52.134;5.424;2023-03-03T13:43:14;102858.19;;;6.36;69.40
72086;BME280;64750;52.134;5.424;2023-03-03T13:45:57;102859.88;;;6.37;69.76
72086;BME280;64750;52.134;5.424;2023-03-03T13:48:45;102864.28;;;6.35;69.40
72086;BME280;64750;52.134;5.424;2023-03-03T13:51:32;102860.78;;;6.34;69.73
72086;BME280;64750;52.134;5.424;2023-03-03T13:54:28;102862.53;;;6.34;70.13
72086;BME280;64750;52.134;5.424;2023-03-03T13:57:12;102859.94;;;6.34;70.24
72086;BME280;64750;52.134;5.424;2023-03-03T14:00:03;102855.56;;;6.36;70.32
72086;BME280;64750;52.134;5.424;2023-03-03T14:08:05;102858.09;;;6.42;70.62
72086;BME280;64750;52.134;5.424;2023-03-03T14:10:42;102859.00;;;6.41;70.55
72086;BME280;64750;52.134;5.424;2023-03-03T14:13:19;102855.50;;;6.40;70.98
72086;BME280;64750;52.134;5.424;2023-03-03T14:16:17;102850.28;;;6.40;70.19
72086;BME280;64750;52.134;5.424;2023-03-03T14:18:54;102852.00;;;6.42;69.46
72086;BME280;64750;52.134;5.424;2023-03-03T14:21:42;102851.16;;;6.41;68.93
72086;BME280;64750;52.134;5.424;2023-03-03T14:24:21;102842.41;;;6.42;69.27
72086;BME280;64750;52.134;5.424;2023-03-03T14:26:58;102838.09;;;6.41;68.23
72086;BME280;64750;52.134;5.424;2023-03-03T14:31:55;102838.94;;;6.43;67.89
72086;BME280;64750;52.134;5.424;2023-03-03T14:36:50;102842.47;;;6.39;66.19
72086;BME280;64750;52.134;5.424;2023-03-03T14:39:37;102847.66;;;6.42;65.80
72086;BME280;64750;52.134;5.424;2023-03-03T14:42:11;102834.59;;;6.40;64.23
72086;BME280;64750;52.134;5.424;2023-03-03T14:47:24;102830.25;;;6.39;63.42
72086;BME280;64750;52.134;5.424;2023-03-03T14:49:54;102828.56;;;6.38;64.18
72086;BME280;64750;52.134;5.424;2023-03-03T14:52:28;102829.38;;;6.40;64.09
72086;BME280;64750;52.134;5.424;2023-03-03T14:54:57;102827.63;;;6.43;64.15
72086;BME280;64750;52.134;5.424;2023-03-03T15:00:27;102825.81;;;6.49;65.27
72086;BME280;64750;52.134;5.424;2023-03-03T15:03:22;102829.28;;;6.51;64.79
72086;BME280;64750;52.134;5.424;2023-03-03T15:05:54;102818.03;;;6.46;63.94
72086;BME280;64750;52.134;5.424;2023-03-03T15:08:33;102825.03;;;6.41;63.82
72086;BME280;64750;52.134;5.424;2023-03-03T15:11:26;102820.66;;;6.42;64.24
72086;BME280;64750;52.134;5.424;2023-03-03T15:14:08;102823.25;;;6.43;65.14
72086;BME280;64750;52.134;5.424;2023-03-03T15:16:35;102825.00;;;6.44;65.56
72086;BME280;64750;52.134;5.424;2023-03-03T15:22:04;102811.16;;;6.36;66.11
72086;BME280;64750;52.134;5.424;2023-03-03T15:24:38;102819.00;;;6.36;65.77
72086;BME280;64750;52.134;5.424;2023-03-03T15:27:27;102816.41;;;6.33;65.17
72086;BME280;64750;52.134;5.424;2023-03-03T15:30:03;102816.47;;;6.27;64.98
72086;BME280;64750;52.134;5.424;2023-03-03T15:32:56;102812.13;;;6.27;65.89
72086;BME280;64750;52.134;5.424;2023-03-03T15:35:30;102814.69;;;6.30;66.06
72086;BME280;64750;52.134;5.424;2023-03-03T15:41:24;102804.22;;;6.32;65.89
72086;BME280;64750;52.134;5.424;2023-03-03T15:46:45;102806.84;;;6.32;65.53
72086;BME280;64750;52.134;5.424;2023-03-03T15:55:26;102814.81;;;6.19;64.96